Observations for Trim Patrick St
| Time | AQI | Temp °C | Hum % | Pres Pa | CO μg/m³ | H₂S μg/m³ | NO μg/m³ | NO₂ μg/m³ | O₃ μg/m³ | SO₂ μg/m³ | PM1 μg/m³ | PM2.5 μg/m³ | PM10 μg/m³ |
|---|---|---|---|---|---|---|---|---|---|---|---|---|---|
| Sunday 2 August 2026 | |||||||||||||
| 21:17 | 3 | 16.3 | 74 | 38,442 | 0.1 | 15.93 | 1.13 | 49.51 | 40.58 | 0 | 5.43 | 8.49 | 9.34 |
| 21:15 | 3 | 16.3 | 73 | 38,428 | 0.06 | 14.19 | 1.07 | 50.14 | 29.01 | 0 | 3.71 | 6.39 | 7.03 |
| 21:12 | 3 | 16.4 | 73 | 38,383 | 0.03 | 12.99 | 1.13 | 37.66 | 26.95 | 0.26 | 3.71 | 7.85 | 8.64 |
| 21:07 | 3 | 16.6 | 72 | 38,215 | 0.04 | 17.25 | 1.42 | 47.42 | 30.3 | 1.19 | 4.57 | 7.89 | 8.67 |
| 21:06 | 3 | 16.6 | 72 | 38,134 | 0.04 | 17.87 | 1.42 | 73 | 8.4 | 2.23 | 5.43 | 8.63 | 9.5 |
| 21:05 | 3 | 16.6 | 71 | 38,025 | 0.03 | 11.71 | 1.38 | 36.76 | 25.17 | 0.7 | 3.71 | 7.94 | 8.74 |
| 21:04 | 3 | 16.6 | 71 | 37,880 | 0.03 | 12.75 | 1.15 | 44.55 | 22.18 | 0.97 | 3.71 | 7.95 | 8.75 |
| 21:03 | 3 | 16.7 | 71 | 37,686 | 0.04 | 11.45 | 1.09 | 36.36 | 26.84 | 0.67 | 3.71 | 6.53 | 7.18 |
| 21:02 | 3 | 16.7 | 71 | 37,428 | 0.05 | 13.36 | 1.03 | 44.86 | 15.44 | 0.19 | 3.71 | 7.25 | 7.98 |
| 21:01 | 3 | 16.7 | 70 | 37,085 | 0.02 | 14.22 | 1.04 | 45.92 | 33.15 | 0.8 | 2.86 | 6.56 | 7.22 |
| 21:00 | 3 | 16.8 | 70 | 36,626 | 0 | 12.03 | 1.12 | 35.96 | 27.07 | 0.55 | 2.86 | 6.56 | 7.22 |
| 20:59 | 3 | 16.8 | 70 | 36,015 | 0.01 | 15.01 | 1.1 | 43.05 | 37.95 | 0.26 | 3.71 | 8.73 | 9.6 |
| 20:58 | 3 | 16.9 | 70 | 35,199 | 0.01 | 13.44 | 1.08 | 47.96 | 27.38 | 0.16 | 3.71 | 7.32 | 8.05 |
| 20:57 | 3 | 16.9 | 70 | 34,112 | 0 | 13.7 | 1.25 | 43 | 40.61 | 0.2 | 3.71 | 7.33 | 8.06 |
| 20:56 | 3 | 17 | 69 | 32,662 | 0.01 | 11.09 | 1.32 | 30.89 | 34.37 | 0.38 | 3.71 | 8.08 | 8.89 |
| 20:55 | 3 | 17 | 70 | 30,730 | 0.04 | 13.83 | 1.19 | 40.47 | 34.37 | 0.58 | 3.71 | 7.35 | 8.08 |
| 20:54 | 3 | 17 | 69 | 28,153 | 0 | 13.83 | 1.2 | 39.41 | 31.19 | 0.75 | 4.57 | 8.09 | 8.9 |
| 20:53 | 3 | 17.1 | 69 | 24,717 | 0 | 12.32 | 1.28 | 47.52 | 23.05 | 0.15 | 3.71 | 7.38 | 8.12 |
| 20:52 | 3 | 17.1 | 69 | 20,136 | 0 | 12.92 | 1.24 | 46.47 | 34.61 | 0.23 | 3.71 | 8.12 | 8.93 |
| 20:51 | 3 | 17.1 | 69 | 14,026 | 0.02 | 11.48 | 1.24 | 32.62 | 31.8 | 0.61 | 2.86 | 7.41 | 8.15 |